Time;durP1;ratioP1;P1;durP2;ratioP2;P2;SDS_P1;SDS_P2;PMS_P1;PMS_P2;Temp;Humidity;BMP_temperature;BMP_pressure;BME280_temperature;BME280_humidity;BME280_pressure;Samples;Min_cycle;Max_cycle;Signal;HPM_P1;HPM_P2
2021/11/22 00:00:40;;;;;;;10.70;6.60;;;4.60;99.90;;;;;;5017085;28;20462;-77
2021/11/22 00:03:07;;;;;;;15.60;7.37;;;4.60;99.90;;;;;;5016601;28;20425;-76
2021/11/22 00:05:33;;;;;;;14.23;6.57;;;4.60;99.90;;;;;;4997110;28;20410;-76
2021/11/22 00:07:59;;;;;;;17.30;8.67;;;4.60;99.90;;;;;;5012590;28;20441;-77
2021/11/22 00:10:26;;;;;;;15.50;8.53;;;4.50;99.90;;;;;;5014109;28;20757;-78
2021/11/22 00:12:52;;;;;;;12.30;6.70;;;4.50;99.90;;;;;;5012631;28;20410;-76
2021/11/22 00:15:18;;;;;;;10.30;5.47;;;4.50;99.90;;;;;;4996480;28;20484;-77
2021/11/22 00:17:44;;;;;;;10.87;6.90;;;4.50;99.90;;;;;;5013069;28;20424;-77
2021/11/22 00:20:13;;;;;;;14.70;7.17;;;4.50;99.90;;;;;;5014326;28;20983;-77
2021/11/22 00:22:40;;;;;;;14.53;7.10;;;4.40;99.90;;;;;;5013384;28;20509;-77
2021/11/22 00:33:14;;;;;;;11.07;5.40;;;4.40;99.90;;;;;;5013569;28;20489;-76
2021/11/22 00:35:59;;;;;;;17.37;6.43;;;4.40;99.90;;;;;;5013206;28;20425;-76
2021/11/22 00:38:25;;;;;;;14.23;7.27;;;4.40;99.90;;;;;;5013822;28;20422;-76
2021/11/22 00:40:50;;;;;;;11.73;7.57;;;4.40;99.90;;;;;;5017226;28;20994;-76
2021/11/22 00:43:20;;;;;;;15.47;6.00;;;4.40;99.90;;;;;;5018252;28;20202;-77
2021/11/22 00:45:49;;;;;;;14.80;7.13;;;4.40;99.90;;;;;;5018381;28;20257;-76
2021/11/22 00:48:15;;;;;;;16.40;6.33;;;4.50;99.90;;;;;;5017903;28;20912;-76
2021/11/22 00:50:41;;;;;;;11.53;6.40;;;4.60;99.90;;;;;;5019589;28;20817;-77
2021/11/22 00:53:07;;;;;;;11.50;5.90;;;4.60;99.90;;;;;;5017517;28;20221;-76
2021/11/22 00:55:32;;;;;;;15.70;6.50;;;4.70;99.90;;;;;;5017769;28;20679;-77
2021/11/22 00:57:58;;;;;;;10.13;5.70;;;4.70;99.80;;;;;;5017944;28;20202;-77
2021/11/22 01:00:24;;;;;;;13.53;6.00;;;4.70;99.70;;;;;;5017588;28;20680;-77
2021/11/22 01:02:50;;;;;;;20.33;5.93;;;4.70;99.50;;;;;;5017019;28;20167;-77
2021/11/22 01:05:16;;;;;;;14.00;6.17;;;4.70;99.50;;;;;;5022242;28;20401;-78
2021/11/22 01:07:42;;;;;;;11.87;5.17;;;4.60;99.50;;;;;;5018223;28;20291;-77
2021/11/22 01:10:09;;;;;;;21.00;6.00;;;4.60;99.50;;;;;;5021199;28;20458;-78
2021/11/22 01:12:35;;;;;;;13.23;5.33;;;4.50;99.60;;;;;;5017515;28;20178;-77
2021/11/22 01:15:05;;;;;;;14.50;5.20;;;4.50;99.80;;;;;;5015776;28;20422;-77
2021/11/22 01:17:31;;;;;;;19.97;5.93;;;4.40;99.90;;;;;;4998681;28;20413;-77
2021/11/22 01:19:57;;;;;;;10.33;4.87;;;4.40;99.90;;;;;;4997720;28;20959;-78
2021/11/22 01:22:24;;;;;;;13.00;5.20;;;4.50;99.90;;;;;;5014585;28;20178;-78
2021/11/22 01:24:51;;;;;;;11.83;4.83;;;4.60;99.90;;;;;;5015592;28;20250;-77
2021/11/22 01:27:17;;;;;;;9.83;4.47;;;4.70;99.90;;;;;;5015828;28;20469;-77
2021/11/22 01:29:44;;;;;;;10.87;4.60;;;4.80;99.90;;;;;;4999053;28;20505;-77
2021/11/22 01:32:09;;;;;;;10.30;5.30;;;4.80;99.80;;;;;;5014792;28;20502;-78
2021/11/22 01:34:35;;;;;;;11.37;5.70;;;4.90;99.80;;;;;;5015160;28;20863;-78
2021/11/22 01:37:02;;;;;;;12.40;5.73;;;5.00;99.60;;;;;;5015354;28;20194;-78
2021/11/22 01:39:28;;;;;;;11.70;4.87;;;5.10;99.40;;;;;;5015608;28;20434;-77
2021/11/22 01:41:53;;;;;;;6.63;4.60;;;5.10;99.30;;;;;;4997459;28;20488;-78
2021/11/22 01:44:19;;;;;;;10.63;4.77;;;5.20;99.20;;;;;;4997749;28;20201;-78
2021/11/22 01:46:48;;;;;;;9.53;4.80;;;5.20;99.10;;;;;;4997216;28;20384;-77
2021/11/22 01:49:14;;;;;;;9.90;4.93;;;5.30;99.00;;;;;;5014455;28;20521;-77
2021/11/22 01:51:40;;;;;;;10.67;3.87;;;5.30;98.90;;;;;;5014841;28;20398;-78
2021/11/22 01:54:06;;;;;;;7.60;4.93;;;5.30;98.90;;;;;;5015506;28;20922;-79
2021/11/22 01:56:32;;;;;;;10.33;5.80;;;5.40;98.80;;;;;;4997967;28;20175;-78
2021/11/22 01:58:58;;;;;;;16.23;5.00;;;5.40;98.80;;;;;;5016201;28;20438;-78
2021/11/22 02:01:24;;;;;;;25.47;7.47;;;5.40;98.70;;;;;;5028686;28;20210;-77
2021/11/22 02:03:49;;;;;;;9.93;4.90;;;5.40;98.70;;;;;;5030395;28;20170;-77
2021/11/22 02:06:15;;;;;;;15.03;5.70;;;5.50;98.70;;;;;;5030699;28;20182;-76
2021/11/22 02:08:41;;;;;;;8.87;5.23;;;5.50;98.70;;;;;;5002559;28;20437;-77
2021/11/22 02:11:11;;;;;;;19.83;5.30;;;5.50;98.70;;;;;;5014367;28;20218;-78
2021/11/22 02:13:37;;;;;;;7.60;5.30;;;5.50;98.70;;;;;;4996816;28;20421;-76
2021/11/22 02:16:02;;;;;;;12.20;5.13;;;5.60;98.70;;;;;;5015052;28;20407;-77
2021/11/22 02:18:28;;;;;;;8.13;6.10;;;5.60;98.70;;;;;;5014301;28;20317;-77
2021/11/22 02:20:54;;;;;;;11.40;4.97;;;5.60;98.70;;;;;;4996428;28;20705;-77
2021/11/22 02:23:20;;;;;;;17.77;5.87;;;5.70;98.70;;;;;;5015120;28;20423;-77
2021/11/22 02:25:46;;;;;;;14.90;6.20;;;5.70;98.60;;;;;;5016515;28;20417;-78
2021/11/22 02:28:14;;;;;;;11.60;6.07;;;5.70;98.60;;;;;;5016544;28;20521;-77
2021/11/22 02:30:42;;;;;;;10.70;5.67;;;5.70;98.60;;;;;;5020397;28;20171;-77
2021/11/22 02:33:14;;;;;;;10.20;6.37;;;5.70;98.60;;;;;;5018160;28;20410;-77
2021/11/22 02:35:45;;;;;;;9.63;6.53;;;5.70;98.60;;;;;;5021902;28;20476;-77
2021/11/22 02:38:11;;;;;;;13.93;6.40;;;5.80;98.60;;;;;;5015422;28;20430;-77
2021/11/22 02:40:37;;;;;;;9.93;6.70;;;5.80;98.60;;;;;;5014408;28;20453;-78
2021/11/22 02:43:02;;;;;;;14.27;7.10;;;5.80;98.50;;;;;;4997361;28;20753;-77
2021/11/22 02:45:28;;;;;;;15.07;7.77;;;5.80;98.40;;;;;;5013635;28;20660;-77
2021/11/22 02:47:54;;;;;;;15.43;7.90;;;5.80;98.30;;;;;;5013591;28;20167;-77
2021/11/22 02:50:20;;;;;;;18.33;8.73;;;5.70;98.30;;;;;;5013304;28;20175;-77
2021/11/22 02:52:47;;;;;;;17.13;8.93;;;5.70;98.50;;;;;;5013400;28;20178;-77
2021/11/22 02:55:15;;;;;;;15.70;8.50;;;5.70;98.60;;;;;;5012844;28;20414;-77
2021/11/22 02:57:42;;;;;;;16.50;8.90;;;5.70;98.60;;;;;;5012791;28;20414;-77
2021/11/22 03:00:16;;;;;;;16.63;10.33;;;5.80;98.60;;;;;;5013016;28;20546;-77
2021/11/22 03:02:42;;;;;;;23.50;10.07;;;5.80;98.50;;;;;;5012876;28;20410;-77
2021/11/22 03:05:08;;;;;;;18.40;11.77;;;5.90;98.50;;;;;;5013257;28;20787;-76
2021/11/22 03:07:34;;;;;;;17.70;9.37;;;5.90;98.40;;;;;;4995012;28;20414;-77
2021/11/22 03:10:00;;;;;;;18.87;9.80;;;5.90;98.30;;;;;;4995373;28;20430;-77
2021/11/22 03:12:26;;;;;;;24.30;10.10;;;6.00;98.30;;;;;;5012898;28;20730;-76
2021/11/22 03:14:52;;;;;;;22.50;12.20;;;6.00;98.20;;;;;;4994994;28;20407;-76
2021/11/22 03:17:18;;;;;;;18.10;9.87;;;6.00;98.10;;;;;;4995547;28;20533;-76
2021/11/22 03:19:45;;;;;;;20.80;11.00;;;6.00;98.10;;;;;;4995739;28;20418;-76
2021/11/22 03:22:11;;;;;;;13.40;8.63;;;6.00;98.10;;;;;;5012977;28;20418;-76
2021/11/22 03:24:36;;;;;;;17.87;10.30;;;6.10;98.10;;;;;;5012942;28;20770;-77
2021/11/22 03:27:03;;;;;;;27.80;11.77;;;6.10;98.10;;;;;;4995097;28;20406;-77
2021/11/22 03:29:29;;;;;;;24.87;11.13;;;6.10;98.00;;;;;;5012726;28;20509;-77
2021/11/22 03:31:56;;;;;;;23.10;11.13;;;6.10;98.00;;;;;;5013001;28;20448;-77
2021/11/22 03:34:22;;;;;;;20.30;11.97;;;6.10;98.00;;;;;;5012856;28;20533;-77
2021/11/22 03:36:48;;;;;;;22.37;11.43;;;6.10;98.00;;;;;;5013052;28;20418;-77
2021/11/22 03:39:22;;;;;;;28.80;11.23;;;6.20;98.00;;;;;;5011836;28;20197;-78
2021/11/22 03:41:50;;;;;;;24.40;11.70;;;6.20;97.90;;;;;;4994194;28;20468;-77
2021/11/22 03:44:17;;;;;;;22.97;12.50;;;6.20;97.90;;;;;;5013058;28;20421;-77
2021/11/22 03:46:48;;;;;;;17.57;11.90;;;6.20;97.90;;;;;;4995191;28;20447;-77
2021/11/22 03:49:15;;;;;;;23.07;11.03;;;6.20;97.90;;;;;;5012754;28;20429;-76
2021/11/22 03:51:41;;;;;;;25.87;12.43;;;6.20;97.80;;;;;;5011842;28;20487;-77
2021/11/22 03:54:07;;;;;;;20.57;11.87;;;6.20;97.70;;;;;;5012414;28;20513;-77
2021/11/22 03:56:34;;;;;;;22.90;12.83;;;6.20;97.70;;;;;;4995194;28;20512;-77
2021/11/22 03:59:00;;;;;;;20.07;11.77;;;6.20;97.70;;;;;;5012915;28;20838;-77
2021/11/22 04:01:25;;;;;;;20.47;13.03;;;6.20;97.70;;;;;;5012503;28;20528;-78
2021/11/22 04:03:51;;;;;;;20.10;12.03;;;6.20;97.70;;;;;;5012489;28;20182;-77
2021/11/22 04:06:17;;;;;;;25.90;11.40;;;6.30;97.70;;;;;;5012292;28;20179;-77
2021/11/22 04:08:44;;;;;;;22.90;12.70;;;6.30;97.70;;;;;;4994451;28;20457;-77
2021/11/22 04:11:11;;;;;;;21.20;11.50;;;6.30;97.60;;;;;;5012734;28;20628;-76
2021/11/22 04:13:36;;;;;;;26.37;13.00;;;6.30;97.50;;;;;;5014754;28;20507;-77
2021/11/22 04:16:02;;;;;;;22.43;12.87;;;6.30;97.50;;;;;;5016043;28;20413;-77
2021/11/22 04:18:29;;;;;;;17.07;11.73;;;6.30;97.50;;;;;;5016419;28;20187;-77
2021/11/22 04:20:55;;;;;;;18.37;12.70;;;6.30;97.50;;;;;;4998410;28;20457;-76
2021/11/22 04:23:21;;;;;;;19.40;11.73;;;6.30;97.50;;;;;;5015772;28;20398;-76
2021/11/22 04:25:47;;;;;;;20.23;12.00;;;6.30;97.50;;;;;;5016830;28;20409;-77
2021/11/22 04:28:12;;;;;;;18.00;11.50;;;6.30;97.90;;;;;;5016821;28;20218;-77
2021/11/22 04:30:39;;;;;;;23.90;11.33;;;6.30;97.50;;;;;;5016482;28;20171;-77
2021/11/22 04:33:05;;;;;;;18.83;11.57;;;6.30;97.40;;;;;;5016505;28;20575;-76
2021/11/22 04:35:30;;;;;;;23.10;12.23;;;6.30;97.30;;;;;;5016187;28;20520;-77
2021/11/22 04:37:57;;;;;;;25.23;11.80;;;6.30;97.30;;;;;;5016031;28;20515;-77
2021/11/22 04:40:23;;;;;;;18.87;10.53;;;6.30;97.20;;;;;;5016230;28;20187;-77
2021/11/22 04:42:49;;;;;;;20.03;13.47;;;6.30;97.20;;;;;;5024435;28;20422;-78
2021/11/22 04:45:28;;;;;;;23.07;11.47;;;6.30;97.20;;;;;;5039153;28;20405;-78
2021/11/22 04:47:54;;;;;;;17.53;10.67;;;6.30;97.60;;;;;;5006102;28;20851;-77
2021/11/22 04:50:20;;;;;;;15.50;9.20;;;6.30;97.20;;;;;;5036756;28;20485;-78
2021/11/22 04:52:48;;;;;;;15.50;10.73;;;6.30;97.10;;;;;;5020911;28;20412;-78
2021/11/22 04:55:18;;;;;;;16.17;9.47;;;6.30;97.00;;;;;;5032147;28;20183;-77
2021/11/22 04:57:43;;;;;;;24.33;12.37;;;6.30;96.90;;;;;;5017708;28;20516;-77
2021/11/22 05:00:12;;;;;;;14.67;8.87;;;6.30;96.80;;;;;;5017269;28;20894;-77
2021/11/22 05:02:39;;;;;;;12.60;8.90;;;6.30;96.70;;;;;;5017807;28;20190;-77
2021/11/22 05:05:06;;;;;;;13.73;8.70;;;6.30;96.70;;;;;;5016935;28;20410;-77
2021/11/22 05:07:32;;;;;;;17.17;9.97;;;6.30;96.50;;;;;;4998717;28;20418;-77
2021/11/22 05:09:58;;;;;;;14.10;9.13;;;6.30;96.50;;;;;;5015335;28;20430;-77
2021/11/22 05:12:24;;;;;;;18.63;10.90;;;6.30;96.50;;;;;;5015470;28;20591;-77
2021/11/22 05:14:49;;;;;;;13.90;9.43;;;6.40;96.60;;;;;;5015274;28;20533;-77
2021/11/22 05:17:15;;;;;;;11.27;9.00;;;6.40;96.50;;;;;;4997380;28;20176;-77
2021/11/22 05:19:41;;;;;;;23.60;11.93;;;6.40;96.40;;;;;;5014905;28;20190;-77
2021/11/22 05:22:07;;;;;;;14.90;8.60;;;6.40;96.40;;;;;;5014819;28;20198;-78
2021/11/22 05:24:33;;;;;;;17.43;9.97;;;6.40;96.30;;;;;;5014378;28;20432;-77
2021/11/22 05:27:01;;;;;;;11.43;8.60;;;6.50;96.30;;;;;;5015237;28;20182;-77
2021/11/22 05:29:27;;;;;;;11.57;7.40;;;6.50;96.20;;;;;;5015326;28;20433;-77
2021/11/22 05:31:53;;;;;;;12.30;8.40;;;6.40;96.10;;;;;;4997509;28;20673;-77
2021/11/22 05:34:19;;;;;;;14.47;8.27;;;6.50;96.20;;;;;;4997984;28;20179;-76
2021/11/22 05:36:46;;;;;;;16.47;7.60;;;6.50;96.10;;;;;;5015187;28;20205;-77
2021/11/22 05:39:12;;;;;;;13.60;7.37;;;6.50;96.00;;;;;;4997506;28;20438;-77
2021/11/22 05:41:38;;;;;;;14.30;9.00;;;6.50;95.90;;;;;;5015191;28;20453;-78
2021/11/22 05:44:04;;;;;;;13.63;9.63;;;6.50;95.90;;;;;;5015990;28;20406;-76
2021/11/22 05:46:30;;;;;;;11.80;6.60;;;6.50;95.80;;;;;;5016485;28;20477;-77
2021/11/22 05:48:56;;;;;;;17.20;9.37;;;6.50;95.80;;;;;;5015696;28;20260;-76
2021/11/22 05:51:22;;;;;;;18.07;9.70;;;6.50;95.60;;;;;;5015121;28;20178;-77
2021/11/22 05:53:49;;;;;;;10.80;7.87;;;6.60;95.60;;;;;;4996994;28;20540;-77
2021/11/22 05:56:19;;;;;;;11.30;7.10;;;6.60;95.50;;;;;;5014776;28;20449;-77
2021/11/22 05:58:45;;;;;;;9.67;6.53;;;6.60;95.30;;;;;;4996447;28;20863;-77
2021/11/22 06:01:13;;;;;;;13.80;6.90;;;6.60;95.10;;;;;;4997841;28;20481;-77
2021/11/22 06:03:39;;;;;;;10.07;6.57;;;6.60;94.80;;;;;;5014745;28;20442;-76
2021/11/22 06:06:05;;;;;;;10.90;6.10;;;6.60;94.70;;;;;;4997078;28;20406;-76
2021/11/22 06:08:31;;;;;;;9.87;7.00;;;6.60;94.60;;;;;;5014699;28;20453;-76
2021/11/22 06:10:57;;;;;;;11.90;7.30;;;6.60;94.60;;;;;;5014740;28;20171;-77
2021/11/22 06:13:23;;;;;;;12.77;7.93;;;6.60;94.60;;;;;;5016162;28;20661;-77
2021/11/22 06:15:49;;;;;;;10.03;6.50;;;6.50;94.60;;;;;;5016221;28;20835;-78
2021/11/22 06:20:53;;;;;;;9.93;6.50;;;6.50;94.60;;;;;;5006515;28;20479;-78
2021/11/22 06:23:19;;;;;;;10.40;6.40;;;6.50;94.60;;;;;;5010676;28;20466;-78
2021/11/22 06:25:45;;;;;;;10.60;5.37;;;6.40;94.50;;;;;;5004049;28;20160;-78
2021/11/22 06:28:11;;;;;;;7.80;5.20;;;6.40;94.50;;;;;;5001695;28;20267;-78
2021/11/22 06:30:37;;;;;;;11.73;7.13;;;6.30;94.40;;;;;;4985309;28;20458;-82
2021/11/22 06:33:03;;;;;;;6.57;5.13;;;6.20;94.50;;;;;;5006384;28;20172;-79
2021/11/22 06:35:30;;;;;;;9.53;6.27;;;6.20;94.60;;;;;;5003481;28;21103;-79
2021/11/22 06:37:55;;;;;;;9.63;6.00;;;6.10;94.40;;;;;;4998889;28;20454;-79
2021/11/22 06:40:21;;;;;;;8.53;7.00;;;6.00;94.60;;;;;;5004604;28;20451;-78
2021/11/22 06:42:47;;;;;;;10.03;7.37;;;6.00;94.80;;;;;;5002158;28;20419;-78
2021/11/22 06:45:17;;;;;;;11.00;6.67;;;6.10;94.90;;;;;;5000753;28;20175;-80
2021/11/22 06:47:43;;;;;;;13.77;7.23;;;6.10;94.90;;;;;;5002125;28;20434;-79
2021/11/22 06:50:09;;;;;;;12.47;7.50;;;6.10;94.80;;;;;;5003080;28;20446;-80
2021/11/22 06:52:35;;;;;;;13.57;7.67;;;6.10;94.80;;;;;;5005490;28;20179;-79
2021/11/22 06:55:01;;;;;;;12.40;8.00;;;6.00;94.80;;;;;;5005902;28;20435;-78
2021/11/22 06:57:32;;;;;;;13.33;8.80;;;5.90;94.90;;;;;;5084002;27;1239434;-83
2021/11/22 06:59:57;;;;;;;17.33;10.90;;;5.80;95.10;;;;;;5055257;28;20439;-80
2021/11/22 07:02:24;;;;;;;17.73;10.67;;;5.70;95.20;;;;;;5063289;28;20193;-80
2021/11/22 07:04:51;;;;;;;20.50;9.67;;;5.70;95.30;;;;;;5064990;28;20173;-80
2021/11/22 07:07:17;;;;;;;18.33;10.47;;;5.60;95.40;;;;;;5077998;28;20415;-79
2021/11/22 07:09:43;;;;;;;21.03;10.90;;;5.60;95.90;;;;;;5079700;28;20435;-80
2021/11/22 07:12:09;;;;;;;23.50;12.03;;;5.50;95.70;;;;;;5077549;28;20160;-79
2021/11/22 07:14:37;;;;;;;20.10;10.23;;;5.50;95.80;;;;;;5064579;28;20739;-80
2021/11/22 07:17:04;;;;;;;22.07;12.90;;;5.40;95.80;;;;;;5062601;28;20479;-79
2021/11/22 07:19:30;;;;;;;19.47;9.10;;;5.40;96.00;;;;;;5071035;28;20467;-80
2021/11/22 07:21:56;;;;;;;14.37;9.43;;;5.40;96.00;;;;;;5050661;28;20429;-80
2021/11/22 07:24:22;;;;;;;15.70;9.93;;;5.40;96.10;;;;;;5077253;28;20449;-79
2021/11/22 07:26:48;;;;;;;15.80;10.20;;;5.30;96.10;;;;;;5062079;28;20415;-80
2021/11/22 07:29:16;;;;;;;14.10;8.00;;;5.40;96.20;;;;;;5058577;28;20197;-79
2021/11/22 07:31:42;;;;;;;30.07;15.20;;;5.40;96.10;;;;;;5035409;28;20245;-79
2021/11/22 07:34:08;;;;;;;54.60;23.13;;;5.40;96.00;;;;;;5080591;28;20429;-80
2021/11/22 07:36:34;;;;;;;29.23;15.27;;;5.40;96.00;;;;;;5064074;28;20499;-80
2021/11/22 07:39:00;;;;;;;42.03;18.07;;;5.40;95.90;;;;;;5079473;28;20248;-80
2021/11/22 07:41:26;;;;;;;14.30;8.80;;;5.50;95.80;;;;;;5072494;28;20177;-80
2021/11/22 07:43:51;;;;;;;42.40;19.03;;;5.50;95.80;;;;;;5067968;28;20246;-80
2021/11/22 07:46:17;;;;;;;61.50;23.27;;;5.50;95.60;;;;;;5061816;28;20186;-80
2021/11/22 07:48:43;;;;;;;46.77;17.60;;;5.60;95.50;;;;;;5060064;28;20462;-79
2021/11/22 07:51:09;;;;;;;38.43;15.97;;;5.60;95.40;;;;;;5080881;28;20459;-80
2021/11/22 07:53:35;;;;;;;19.27;8.97;;;5.70;95.30;;;;;;5070637;28;20200;-80
2021/11/22 07:56:02;;;;;;;27.07;15.50;;;5.70;95.00;;;;;;5059189;28;20469;-80
2021/11/22 07:58:28;;;;;;;74.20;27.30;;;5.80;94.80;;;;;;5064446;28;20424;-80
2021/11/22 08:00:53;;;;;;;37.03;17.87;;;5.80;94.60;;;;;;5074288;28;20447;-80
2021/11/22 08:03:19;;;;;;;11.90;8.10;;;5.80;94.40;;;;;;5068771;28;20711;-80
2021/11/22 08:05:47;;;;;;;8.80;6.23;;;5.90;94.30;;;;;;5071435;28;20182;-79
2021/11/22 08:08:13;;;;;;;14.37;10.63;;;5.90;94.40;;;;;;5065690;28;20173;-78
2021/11/22 08:10:39;;;;;;;8.47;6.60;;;5.90;93.80;;;;;;5058071;28;20432;-78
2021/11/22 08:13:07;;;;;;;9.20;6.63;;;6.00;93.50;;;;;;5052734;28;20168;-76
2021/11/22 08:15:36;;;;;;;12.30;7.57;;;6.00;92.90;;;;;;5034812;28;20190;-78
2021/11/22 08:18:05;;;;;;;8.00;6.17;;;6.00;92.50;;;;;;5028708;28;20504;-76
2021/11/22 08:20:31;;;;;;;7.10;4.87;;;6.00;92.40;;;;;;5053372;28;20435;-77
2021/11/22 08:22:57;;;;;;;10.50;6.10;;;6.00;92.30;;;;;;5035002;28;20489;-76
2021/11/22 08:25:26;;;;;;;12.30;6.43;;;6.00;91.90;;;;;;5019241;28;20603;-76
2021/11/22 08:27:55;;;;;;;10.67;5.60;;;6.00;91.90;;;;;;5043978;28;20440;-76
2021/11/22 08:30:23;;;;;;;14.73;6.43;;;6.00;91.60;;;;;;5035325;28;20439;-77
2021/11/22 08:32:51;;;;;;;9.00;6.43;;;6.10;91.60;;;;;;5053551;28;20428;-76
2021/11/22 08:35:18;;;;;;;11.63;7.30;;;6.10;91.40;;;;;;5053358;28;20411;-76
2021/11/22 08:37:45;;;;;;;8.37;5.70;;;6.20;91.40;;;;;;5050003;28;20499;-77
2021/11/22 08:40:15;;;;;;;12.50;5.27;;;6.40;91.40;;;;;;5042833;28;20916;-77
2021/11/22 08:42:41;;;;;;;7.97;5.23;;;6.60;89.40;;;;;;5059613;28;20481;-77
2021/11/22 08:45:07;;;;;;;7.57;5.27;;;6.70;88.80;;;;;;5059402;28;20404;-76
2021/11/22 08:47:33;;;;;;;9.77;6.50;;;6.90;88.80;;;;;;5047209;28;20817;-77
2021/11/22 08:49:59;;;;;;;10.13;6.17;;;7.00;87.80;;;;;;5053058;28;20494;-79
2021/11/22 08:52:25;;;;;;;9.27;6.30;;;7.10;86.00;;;;;;5058725;28;20438;-77
2021/11/22 08:54:52;;;;;;;12.60;5.57;;;7.20;86.20;;;;;;5059319;28;20507;-77
2021/11/22 08:57:19;;;;;;;9.13;5.73;;;7.20;85.40;;;;;;5035670;28;20455;-77
2021/11/22 08:59:46;;;;;;;9.40;6.07;;;7.20;85.50;;;;;;5035533;28;20444;-77
2021/11/22 09:02:12;;;;;;;8.27;5.53;;;7.10;85.20;;;;;;5051425;28;20420;-78
2021/11/22 09:04:37;;;;;;;12.93;6.70;;;7.10;84.30;;;;;;5035283;28;20539;-77
2021/11/22 09:07:04;;;;;;;7.90;5.40;;;7.10;84.70;;;;;;5052838;28;20174;-77
2021/11/22 09:09:30;;;;;;;6.17;5.00;;;7.10;84.40;;;;;;5022232;28;20284;-77
2021/11/22 09:11:55;;;;;;;6.43;5.27;;;7.10;84.30;;;;;;5034565;28;20408;-76
2021/11/22 09:14:22;;;;;;;5.17;4.43;;;7.10;83.70;;;;;;5035027;28;20494;-76
2021/11/22 09:16:48;;;;;;;5.30;4.53;;;7.10;83.60;;;;;;5023427;28;20756;-77
2021/11/22 09:19:14;;;;;;;9.63;5.00;;;7.10;83.60;;;;;;5042944;28;20973;-76
2021/11/22 09:21:41;;;;;;;5.10;4.47;;;7.30;83.40;;;;;;5039518;28;20787;-78
2021/11/22 09:24:07;;;;;;;5.43;4.20;;;7.60;82.60;;;;;;5023658;28;20512;-77
2021/11/22 09:26:33;;;;;;;6.17;4.77;;;7.80;80.70;;;;;;5028652;28;20416;-76
2021/11/22 09:29:00;;;;;;;7.13;5.60;;;7.90;79.10;;;;;;5051698;28;20450;-77
2021/11/22 09:31:25;;;;;;;6.33;4.27;;;7.90;78.60;;;;;;5051831;28;20439;-77
2021/11/22 09:33:53;;;;;;;11.00;5.57;;;7.90;78.30;;;;;;5043511;28;20421;-77
2021/11/22 09:36:20;;;;;;;7.03;4.80;;;7.90;79.00;;;;;;5026733;28;20213;-77
2021/11/22 09:38:47;;;;;;;7.70;5.20;;;7.80;79.70;;;;;;5030822;28;20449;-77
2021/11/22 09:41:13;;;;;;;7.87;5.00;;;7.90;79.90;;;;;;5031192;28;20404;-78
2021/11/22 09:43:43;;;;;;;7.63;5.70;;;8.00;79.00;;;;;;5050933;28;20778;-77
2021/11/22 09:46:10;;;;;;;6.90;4.93;;;8.10;78.90;;;;;;5052289;28;20420;-77
2021/11/22 09:48:35;;;;;;;6.00;5.00;;;8.20;79.00;;;;;;5051790;28;20432;-77
2021/11/22 09:51:02;;;;;;;6.03;4.80;;;8.30;77.10;;;;;;5050889;28;20416;-77
2021/11/22 09:53:28;;;;;;;10.40;6.10;;;8.30;76.40;;;;;;5047526;28;20181;-77
2021/11/22 09:55:56;;;;;;;7.40;5.33;;;8.40;78.60;;;;;;5043484;28;20453;-77
2021/11/22 09:58:21;;;;;;;8.53;5.53;;;8.50;77.20;;;;;;5053664;28;20431;-77
2021/11/22 10:00:51;;;;;;;6.40;4.57;;;8.40;76.50;;;;;;5057080;28;20407;-77
2021/11/22 10:03:18;;;;;;;4.43;3.60;;;8.30;75.40;;;;;;5019039;28;20173;-79
2021/11/22 10:05:46;;;;;;;4.23;3.17;;;8.10;76.00;;;;;;5006599;28;20427;-78
2021/11/22 10:08:17;;;;;;;4.37;3.77;;;8.00;76.40;;;;;;5042287;28;20431;-77
2021/11/22 10:10:47;;;;;;;3.60;3.17;;;7.80;75.80;;;;;;5034994;28;20419;-77
2021/11/22 10:13:18;;;;;;;5.90;3.10;;;7.80;77.50;;;;;;5048899;28;20460;-76
2021/11/22 10:15:45;;;;;;;5.80;3.67;;;7.90;76.90;;;;;;5045282;28;20452;-78
2021/11/22 10:18:26;;;;;;;3.37;2.60;;;8.10;75.70;;;;;;5049144;28;20451;-76
2021/11/22 10:20:53;;;;;;;5.10;2.93;;;8.10;75.80;;;;;;5041461;28;20404;-77
2021/11/22 10:23:26;;;;;;;4.07;2.90;;;8.10;74.20;;;;;;5048003;28;20531;-77
2021/11/22 10:25:53;;;;;;;3.63;2.83;;;8.10;73.40;;;;;;5040312;28;20428;-77
2021/11/22 10:28:23;;;;;;;4.00;3.30;;;8.00;74.00;;;;;;5051403;28;20424;-77
2021/11/22 10:31:04;;;;;;;4.37;3.47;;;8.00;74.30;;;;;;5016659;28;20425;-77
2021/11/22 10:33:36;;;;;;;3.40;3.07;;;8.10;74.60;;;;;;5033748;28;20417;-77
2021/11/22 10:36:05;;;;;;;4.00;3.30;;;8.20;74.90;;;;;;5041388;28;20466;-77
2021/11/22 10:38:38;;;;;;;5.73;4.10;;;8.30;73.10;;;;;;5052295;28;20844;-76
2021/11/22 10:41:06;;;;;;;5.10;4.17;;;8.20;73.70;;;;;;5030802;28;20431;-77
2021/11/22 10:43:38;;;;;;;4.90;4.30;;;8.20;74.30;;;;;;5045944;28;20783;-77
2021/11/22 10:46:09;;;;;;;7.40;4.53;;;8.20;73.30;;;;;;5023294;28;20424;-77
2021/11/22 10:48:35;;;;;;;5.10;3.67;;;8.10;73.30;;;;;;5050779;28;20549;-77
2021/11/22 10:51:20;;;;;;;4.07;3.40;;;8.00;73.70;;;;;;5050314;28;20503;-77
2021/11/22 10:53:48;;;;;;;3.73;3.00;;;7.90;72.90;;;;;;5042609;28;20249;-79
2021/11/22 10:56:23;;;;;;;3.27;2.97;;;7.70;72.90;;;;;;5040435;28;20459;-78
2021/11/22 10:59:07;;;;;;;4.23;3.77;;;7.70;72.50;;;;;;5048376;28;20443;-78
2021/11/22 11:01:57;;;;;;;4.23;3.53;;;7.70;72.10;;;;;;5037745;28;20416;-77
2021/11/22 11:04:22;;;;;;;6.90;4.20;;;7.70;72.60;;;;;;5038101;28;20425;-77
2021/11/22 11:06:49;;;;;;;6.63;4.00;;;7.90;71.60;;;;;;5029885;28;20416;-78
2021/11/22 11:09:23;;;;;;;5.53;3.53;;;7.90;71.40;;;;;;5047357;28;20190;-77
2021/11/22 11:12:15;;;;;;;8.07;3.93;;;7.90;70.20;;;;;;5029512;28;20775;-77
2021/11/22 11:14:45;;;;;;;6.07;3.83;;;7.90;70.30;;;;;;5052104;28;20453;-78
2021/11/22 11:17:15;;;;;;;4.57;4.07;;;7.80;71.50;;;;;;5022462;28;20456;-77
2021/11/22 11:19:45;;;;;;;5.47;3.50;;;7.90;71.00;;;;;;5026590;28;20897;-77
2021/11/22 11:22:12;;;;;;;7.80;6.27;;;7.90;71.30;;;;;;5051093;28;20694;-77
2021/11/22 11:24:38;;;;;;;8.77;5.57;;;8.10;72.20;;;;;;5046504;28;20411;-77
2021/11/22 11:27:04;;;;;;;5.87;3.40;;;8.30;70.80;;;;;;5034951;28;20413;-77
2021/11/22 11:29:30;;;;;;;5.50;4.40;;;8.50;69.90;;;;;;5046067;28;20305;-76
2021/11/22 11:31:56;;;;;;;13.87;6.20;;;8.70;69.50;;;;;;5041633;28;20434;-77
2021/11/22 11:34:28;;;;;;;6.50;4.93;;;8.80;68.60;;;;;;5047365;28;20436;-77
2021/11/22 11:37:13;;;;;;;7.73;5.57;;;9.00;67.60;;;;;;5049152;28;20197;-77
2021/11/22 11:40:21;;;;;;;12.67;6.80;;;9.10;66.70;;;;;;5054004;28;20760;-76
2021/11/22 11:43:10;;;;;;;10.37;6.50;;;9.10;66.20;;;;;;5022406;28;20685;-76
2021/11/22 11:45:44;;;;;;;28.97;11.70;;;9.00;66.30;;;;;;5042116;28;20408;-76
2021/11/22 11:48:24;;;;;;;12.10;7.83;;;8.80;66.80;;;;;;5038476;28;20419;-78
2021/11/22 11:50:50;;;;;;;12.33;5.57;;;8.60;67.50;;;;;;5027975;28;20964;-77
2021/11/22 11:53:18;;;;;;;10.97;5.50;;;8.50;67.60;;;;;;5037877;28;20409;-78
2021/11/22 11:56:10;;;;;;;7.60;5.23;;;8.30;68.40;;;;;;5067751;28;20181;-78
2021/11/22 11:58:35;;;;;;;4.47;3.30;;;8.20;69.30;;;;;;5029994;28;20423;-78
2021/11/22 12:01:21;;;;;;;4.70;3.60;;;8.10;69.00;;;;;;5058794;28;20492;-76
2021/11/22 12:04:02;;;;;;;10.73;5.53;;;8.00;69.40;;;;;;5056951;28;20231;-77
2021/11/22 12:06:56;;;;;;;7.83;4.20;;;8.00;69.60;;;;;;5062628;28;20427;-77
2021/11/22 12:09:35;;;;;;;4.50;3.03;;;8.00;69.70;;;;;;5037189;28;20448;-77
2021/11/22 12:12:32;;;;;;;4.37;3.00;;;8.10;68.80;;;;;;5053919;28;20481;-76
2021/11/22 12:15:00;;;;;;;3.17;2.60;;;8.10;67.70;;;;;;5050600;28;20422;-76
2021/11/22 12:17:39;;;;;;;8.50;4.80;;;8.00;66.50;;;;;;5031816;28;20486;-76
2021/11/22 12:20:07;;;;;;;5.93;4.07;;;8.00;66.50;;;;;;5078421;22;20493;-72
2021/11/22 12:22:38;;;;;;;5.40;3.40;;;8.00;67.00;;;;;;5075226;28;20407;-71
2021/11/22 12:25:06;;;;;;;6.03;2.60;;;8.00;66.40;;;;;;5046687;28;20566;-72
2021/11/22 12:27:35;;;;;;;3.07;2.77;;;8.00;65.30;;;;;;5082644;28;20409;-72
2021/11/22 12:30:24;;;;;;;3.90;2.60;;;8.00;64.60;;;;;;5045983;28;20435;-74
2021/11/22 12:32:50;;;;;;;3.80;2.87;;;7.90;64.60;;;;;;5033494;28;20408;-71
2021/11/22 12:35:16;;;;;;;3.20;2.40;;;8.00;65.00;;;;;;5071140;28;20396;-73
2021/11/22 12:37:45;;;;;;;2.80;1.50;;;7.90;63.90;;;;;;5067284;28;20591;-75
2021/11/22 12:40:17;;;;;;;4.30;2.60;;;7.90;63.30;;;;;;5056459;28;20184;-72
2021/11/22 12:42:56;;;;;;;4.43;2.23;;;7.90;63.30;;;;;;5058537;28;20415;-72
2021/11/22 12:45:23;;;;;;;8.20;5.10;;;7.90;63.50;;;;;;5047363;28;20465;-73
2021/11/22 12:47:49;;;;;;;3.33;2.53;;;7.90;63.80;;;;;;5076484;28;20415;-72
2021/11/22 12:50:20;;;;;;;3.30;2.40;;;7.90;61.00;;;;;;5075465;28;20837;-73
2021/11/22 12:53:14;;;;;;;2.37;1.73;;;7.90;61.00;;;;;;5075202;28;20605;-72
2021/11/22 12:55:46;;;;;;;5.20;1.80;;;7.90;61.30;;;;;;5074927;28;20512;-73
2021/11/22 12:58:21;;;;;;;4.90;1.70;;;7.90;60.80;;;;;;5077322;28;20410;-73
2021/11/22 13:00:47;;;;;;;1.57;0.97;;;7.90;60.30;;;;;;5054140;28;20515;-73
2021/11/22 13:03:18;;;;;;;1.70;1.20;;;7.90;59.60;;;;;;5075651;28;20407;-72